• Join FlightAware (Why Join?)
  • Login
  • US Flag 
 
12:55AM EST


 

Airport Tracker/Info


-or-


 

Live Flight TrackerFlight Track Log ✈ SWA253 ✈ 12-Apr-2013 ✈ KOAK - KBUR

Flight Track Log - Related Links

Times and Time Zones

All times are in EDT time to prevent confusion due to time zone crossing. See the SWA253 flight status page for this flight to view local times or setup timezone preferences in your user account.

Time Position Orientation Groundspeed Altitude Reporting Facility
EDT Latitude Longitude Course Direction KTS MPH feet Rate Location/Type
11:23PM 37.7292 -122.2531 122° Southeast 153 176 1,800  Level Oakland Center
11:24PM 37.7500 -122.3125 294° West 196 226 3,900 2,100 Climbing Oakland Center
11:25PM 37.7222 -122.3822 243° Southwest 229 264 6,100 2,760 Climbing Oakland Center
11:26PM 37.6444 -122.4067 194° South 283 326 9,600 1,860 Climbing Oakland Center
11:27PM 37.5614 -122.3686 160° South 322 371 10,000 1,440 Climbing Oakland Center
11:28PM 37.4744 -122.3178 155° Southeast 341 392 12,600 2,820 Climbing Oakland Center
11:29PM 37.2648 -122.3130 122° Southeast  Level FlightAware Approximate
11:29PM 37.3950 -122.2439 144° Southeast 358 412 15,900  Level Oakland Center
11:30PM 37.3156 -122.1564 139° Southeast 376 433 18,900 1,500 Climbing Oakland Center
11:31PM 37.2328 -122.0664 139° Southeast 390 449 19,000  Climbing Oakland Center
11:32PM 37.1450 -121.9733 140° Southeast 411 473 19,000  Level Oakland Center
11:33PM 37.0575 -121.8803 140° Southeast 413 475 19,000  Level Oakland Center
11:34PM 36.9703 -121.7872 140° Southeast 413 475 19,000  Level Oakland Center
11:35PM 36.8808 -121.6928 140° Southeast 419 482 19,000  Level Oakland Center
11:36PM 36.8333 -121.6500 144° Southeast 431 496 19,000  Level Northern Cal TRACON
11:36PM 36.7750 -121.5814 137° Southeast 417 480 19,000  Level Oakland Center
11:38PM 36.6864 -121.4900 140° Southeast 415 478 19,000  Level Oakland Center
11:39PM 36.5992 -121.3967 139° Southeast 414 476 19,000  Level Oakland Center
11:40PM 36.5106 -121.3053 140° Southeast 414 476 19,000  Level Oakland Center
11:41PM 36.4231 -121.2136 140° Southeast 412 474 19,000  Level Oakland Center
11:42PM 36.3322 -121.1214 141° Southeast 413 475 19,000  Level Oakland Center
11:43PM 36.2433 -121.0306 140° Southeast 414 476 19,000  Level Oakland Center
11:44PM 36.1558 -120.9381 140° Southeast 413 475 19,000  Level Oakland Center
11:45PM 36.0681 -120.8472 140° Southeast 413 475 19,000  Level Oakland Center
11:46PM 35.9775 -120.7594 142° Southeast 414 476 19,000  Level Oakland Center
11:47PM 35.8889 -120.6686 140° Southeast 413 475 19,000  Level Oakland Center
11:48PM 35.8022 -120.5764 139° Southeast 412 474 19,000  Level Oakland Center
11:49PM 35.7136 -120.4881 141° Southeast 411 473 19,000  Level Oakland Center
11:50PM 35.6250 -120.3994 141° Southeast 409 471 19,000  Level Oakland Center
11:51PM 35.5364 -120.3081 140° Southeast 412 474 19,000  Level Oakland Center
11:52PM 35.4289 -120.2025 141° Southeast 414 476 19,000  Level Oakland Center
11:53PM 35.3431 -120.1094 139° Southeast 413 475 19,000  Level Los Angeles Center
11:54PM 35.2642 -120.0053 133° Southeast 416 479 19,000  Level Los Angeles Center
11:55PM 35.1814 -119.9044 135° Southeast 418 481 19,000  Level Los Angeles Center
11:56PM 35.1011 -119.8036 134° Southeast 414 476 19,000  Level Los Angeles Center
11:57PM 35.0197 -119.7022 134° Southeast 416 479 19,000  Level Los Angeles Center
11:58PM 34.9375 -119.6022 135° Southeast 416 479 19,000  Level Los Angeles Center
11:59PM 34.8564 -119.5022 135° Southeast 414 476 19,000 -300 Level Los Angeles Center
12:00AM 34.7736 -119.4006 135° Southeast 420 483 18,500 -1,380 Descending Los Angeles Center
12:01AM 34.6961 -119.3053 135° Southeast 401 461 16,200 -2,340 Descending Los Angeles Center
12:02AM 34.6094 -119.2000 135° Southeast 390 449 13,800 -2,220 Descending Los Angeles Center
12:03AM 34.5358 -119.1125 136° Southeast 378 435 11,700 -1,380 Descending Los Angeles Center
12:04AM 34.4700 -119.0300 134° Southeast 337 388 11,000 -840 Descending Los Angeles Center
12:05AM 34.4181 -118.9511 129° Southeast 299 344 10,000 -1,860 Descending Los Angeles Center
12:06AM 34.3600 -118.8581 127° Southeast 288 331 7,300 -1,920 Descending Los Angeles Center
12:07AM 34.3083 -118.7819 129° Southeast 291 335 6,100 -1,320 Descending Los Angeles Center
12:08AM 34.2611 -118.7069 127° Southeast 283 326 4,700 -1,020 Descending Los Angeles Center
12:09AM 34.2158 -118.6339 127° Southeast 275 316 4,100 -540 Descending Los Angeles Center
12:09AM 34.2000 -118.6167 138° Southeast 246 283 4,000 -540 Descending Southern California TRACON
12:10AM 34.2000 -118.5333 90° East 213 245 3,400 -900 Descending Southern California TRACON
12:12AM 34.2000 -118.4667 90° East 194 223 2,200 -900 Descending Southern California TRACON
12:12AM 34.2000 -118.4167 90° East 148 170 1,600 -480 Descending Southern California TRACON
12:14AM 34.1992 -118.3456 91° East 141 162 900 -420 Descending Los Angeles Center
12:16AM 34.2000 -118.3500 140° Southeast  Level FlightAware Approximate